sensor_id;sensor_type;location;lat;lon;timestamp;P1;durP1;ratioP1;P2;durP2;ratioP2
11655;SDS011;5884;43.618;1.438;2023-06-22T04:47:06;7.73;;;5.03;;
11655;SDS011;5884;43.618;1.438;2023-06-22T04:49:34;8.83;;;5.23;;
11655;SDS011;5884;43.618;1.438;2023-06-22T04:52:03;8.53;;;5.20;;
11655;SDS011;5884;43.618;1.438;2023-06-22T04:54:32;7.53;;;4.67;;
11655;SDS011;5884;43.618;1.438;2023-06-22T04:57:00;10.43;;;5.37;;
11655;SDS011;5884;43.618;1.438;2023-06-22T04:59:29;9.57;;;5.00;;
11655;SDS011;5884;43.618;1.438;2023-06-22T05:01:58;12.93;;;5.30;;
11655;SDS011;5884;43.618;1.438;2023-06-22T05:04:29;11.43;;;5.87;;
11655;SDS011;5884;43.618;1.438;2023-06-22T05:06:57;12.30;;;5.03;;
11655;SDS011;5884;43.618;1.438;2023-06-22T05:09:26;15.50;;;5.23;;
11655;SDS011;5884;43.618;1.438;2023-06-22T05:11:53;12.87;;;5.30;;
11655;SDS011;5884;43.618;1.438;2023-06-22T05:14:21;6.97;;;5.57;;
11655;SDS011;5884;43.618;1.438;2023-06-22T05:16:49;7.70;;;5.30;;
11655;SDS011;5884;43.618;1.438;2023-06-22T05:19:17;10.93;;;5.43;;
11655;SDS011;5884;43.618;1.438;2023-06-22T05:21:45;11.53;;;5.67;;
11655;SDS011;5884;43.618;1.438;2023-06-22T05:24:12;7.93;;;5.77;;
11655;SDS011;5884;43.618;1.438;2023-06-22T05:26:42;7.57;;;6.57;;
11655;SDS011;5884;43.618;1.438;2023-06-22T05:29:09;10.47;;;5.97;;
11655;SDS011;5884;43.618;1.438;2023-06-22T05:31:36;9.27;;;6.23;;
11655;SDS011;5884;43.618;1.438;2023-06-22T05:34:05;7.10;;;5.80;;
11655;SDS011;5884;43.618;1.438;2023-06-22T05:36:32;7.73;;;5.80;;
11655;SDS011;5884;43.618;1.438;2023-06-22T05:39:10;6.90;;;5.90;;
11655;SDS011;5884;43.618;1.438;2023-06-22T05:41:39;10.93;;;6.03;;
11655;SDS011;5884;43.618;1.438;2023-06-22T05:44:06;10.17;;;6.13;;
11655;SDS011;5884;43.618;1.438;2023-06-22T05:46:33;11.20;;;6.77;;
11655;SDS011;5884;43.618;1.438;2023-06-22T05:49:00;9.37;;;6.67;;
11655;SDS011;5884;43.618;1.438;2023-06-22T05:51:28;11.97;;;7.60;;
11655;SDS011;5884;43.618;1.438;2023-06-22T05:53:55;9.60;;;7.20;;
11655;SDS011;5884;43.618;1.438;2023-06-22T05:56:24;10.60;;;7.63;;
11655;SDS011;5884;43.618;1.438;2023-06-22T05:58:51;8.60;;;7.50;;
11655;SDS011;5884;43.618;1.438;2023-06-22T06:01:18;10.17;;;7.63;;
11655;SDS011;5884;43.618;1.438;2023-06-22T06:03:45;11.47;;;7.63;;
11655;SDS011;5884;43.618;1.438;2023-06-22T06:06:15;15.70;;;8.13;;
11655;SDS011;5884;43.618;1.438;2023-06-22T06:08:42;12.40;;;8.23;;
11655;SDS011;5884;43.618;1.438;2023-06-22T06:11:09;12.90;;;9.20;;
11655;SDS011;5884;43.618;1.438;2023-06-22T06:13:41;11.33;;;8.33;;
11655;SDS011;5884;43.618;1.438;2023-06-22T06:16:08;10.60;;;8.60;;
11655;SDS011;5884;43.618;1.438;2023-06-22T06:18:35;10.53;;;8.40;;
11655;SDS011;5884;43.618;1.438;2023-06-22T06:21:02;9.57;;;7.93;;
11655;SDS011;5884;43.618;1.438;2023-06-22T06:23:30;12.97;;;8.97;;
11655;SDS011;5884;43.618;1.438;2023-06-22T06:25:57;13.83;;;8.50;;
11655;SDS011;5884;43.618;1.438;2023-06-22T06:28:24;11.97;;;8.07;;
11655;SDS011;5884;43.618;1.438;2023-06-22T06:30:53;12.47;;;8.40;;
11655;SDS011;5884;43.618;1.438;2023-06-22T06:33:20;14.60;;;8.40;;
11655;SDS011;5884;43.618;1.438;2023-06-22T06:35:47;11.47;;;8.70;;
11655;SDS011;5884;43.618;1.438;2023-06-22T06:38:14;13.50;;;8.70;;
11655;SDS011;5884;43.618;1.438;2023-06-22T06:40:42;11.13;;;8.60;;
11655;SDS011;5884;43.618;1.438;2023-06-22T06:43:10;14.53;;;8.57;;
11655;SDS011;5884;43.618;1.438;2023-06-22T06:45:37;14.33;;;8.70;;
11655;SDS011;5884;43.618;1.438;2023-06-22T06:48:06;16.77;;;8.77;;
11655;SDS011;5884;43.618;1.438;2023-06-22T06:50:34;13.40;;;8.37;;
11655;SDS011;5884;43.618;1.438;2023-06-22T06:53:01;12.30;;;7.43;;
11655;SDS011;5884;43.618;1.438;2023-06-22T06:55:28;12.60;;;8.77;;
11655;SDS011;5884;43.618;1.438;2023-06-22T06:57:58;10.30;;;7.67;;
11655;SDS011;5884;43.618;1.438;2023-06-22T07:00:25;13.20;;;8.70;;
11655;SDS011;5884;43.618;1.438;2023-06-22T07:02:52;16.20;;;8.40;;
11655;SDS011;5884;43.618;1.438;2023-06-22T07:05:21;10.90;;;8.13;;
11655;SDS011;5884;43.618;1.438;2023-06-22T07:07:48;10.60;;;8.03;;
11655;SDS011;5884;43.618;1.438;2023-06-22T07:10:16;11.90;;;7.93;;
11655;SDS011;5884;43.618;1.438;2023-06-22T07:12:43;13.73;;;7.70;;
11655;SDS011;5884;43.618;1.438;2023-06-22T07:15:10;10.63;;;7.83;;
11655;SDS011;5884;43.618;1.438;2023-06-22T07:17:38;10.20;;;7.10;;
11655;SDS011;5884;43.618;1.438;2023-06-22T07:20:07;16.10;;;7.40;;
11655;SDS011;5884;43.618;1.438;2023-06-22T07:22:38;8.43;;;6.83;;
11655;SDS011;5884;43.618;1.438;2023-06-22T07:25:06;13.07;;;6.00;;
11655;SDS011;5884;43.618;1.438;2023-06-22T07:27:36;11.30;;;6.70;;
11655;SDS011;5884;43.618;1.438;2023-06-22T07:30:05;10.10;;;7.00;;
11655;SDS011;5884;43.618;1.438;2023-06-22T07:32:33;7.03;;;6.10;;
11655;SDS011;5884;43.618;1.438;2023-06-22T07:35:01;7.13;;;5.57;;
11655;SDS011;5884;43.618;1.438;2023-06-22T07:37:29;10.67;;;5.40;;
11655;SDS011;5884;43.618;1.438;2023-06-22T07:39:59;7.43;;;4.87;;
11655;SDS011;5884;43.618;1.438;2023-06-22T07:42:29;6.10;;;4.80;;
11655;SDS011;5884;43.618;1.438;2023-06-22T07:44:58;4.60;;;4.10;;
11655;SDS011;5884;43.618;1.438;2023-06-22T07:47:25;4.60;;;3.90;;
11655;SDS011;5884;43.618;1.438;2023-06-22T07:49:53;6.03;;;4.40;;
11655;SDS011;5884;43.618;1.438;2023-06-22T07:52:22;5.03;;;3.70;;
11655;SDS011;5884;43.618;1.438;2023-06-22T07:54:51;5.70;;;3.57;;
11655;SDS011;5884;43.618;1.438;2023-06-22T07:57:19;5.67;;;3.87;;
11655;SDS011;5884;43.618;1.438;2023-06-22T07:59:50;4.47;;;4.03;;
11655;SDS011;5884;43.618;1.438;2023-06-22T08:02:17;6.57;;;3.97;;
11655;SDS011;5884;43.618;1.438;2023-06-22T08:04:44;5.37;;;3.70;;
11655;SDS011;5884;43.618;1.438;2023-06-22T08:07:11;6.23;;;4.20;;
11655;SDS011;5884;43.618;1.438;2023-06-22T08:09:38;4.87;;;4.13;;
11655;SDS011;5884;43.618;1.438;2023-06-22T08:12:13;10.20;;;4.13;;
11655;SDS011;5884;43.618;1.438;2023-06-22T08:14:43;6.43;;;4.87;;
11655;SDS011;5884;43.618;1.438;2023-06-22T08:17:11;10.47;;;5.47;;
11655;SDS011;5884;43.618;1.438;2023-06-22T08:19:39;8.70;;;5.00;;
11655;SDS011;5884;43.618;1.438;2023-06-22T08:22:07;7.60;;;5.10;;
11655;SDS011;5884;43.618;1.438;2023-06-22T08:24:34;9.40;;;5.23;;
11655;SDS011;5884;43.618;1.438;2023-06-22T08:27:01;7.00;;;5.03;;
11655;SDS011;5884;43.618;1.438;2023-06-22T08:29:28;8.77;;;4.97;;
11655;SDS011;5884;43.618;1.438;2023-06-22T08:31:57;10.47;;;4.87;;
11655;SDS011;5884;43.618;1.438;2023-06-22T08:34:24;6.03;;;4.33;;
11655;SDS011;5884;43.618;1.438;2023-06-22T08:36:53;6.63;;;4.70;;
11655;SDS011;5884;43.618;1.438;2023-06-22T08:39:20;7.30;;;4.83;;
11655;SDS011;5884;43.618;1.438;2023-06-22T08:41:47;6.93;;;4.30;;
11655;SDS011;5884;43.618;1.438;2023-06-22T08:44:16;7.90;;;4.53;;
11655;SDS011;5884;43.618;1.438;2023-06-22T08:46:45;6.57;;;4.40;;
11655;SDS011;5884;43.618;1.438;2023-06-22T08:49:14;4.97;;;4.47;;
11655;SDS011;5884;43.618;1.438;2023-06-22T08:51:41;6.67;;;4.37;;
11655;SDS011;5884;43.618;1.438;2023-06-22T08:54:09;4.83;;;3.83;;
11655;SDS011;5884;43.618;1.438;2023-06-22T08:56:36;5.97;;;3.53;;
11655;SDS011;5884;43.618;1.438;2023-06-22T08:59:04;6.13;;;3.93;;
11655;SDS011;5884;43.618;1.438;2023-06-22T09:01:34;7.73;;;4.57;;
11655;SDS011;5884;43.618;1.438;2023-06-22T09:04:01;7.50;;;4.17;;
11655;SDS011;5884;43.618;1.438;2023-06-22T09:06:32;6.00;;;4.33;;
11655;SDS011;5884;43.618;1.438;2023-06-22T09:08:59;6.50;;;4.73;;
11655;SDS011;5884;43.618;1.438;2023-06-22T09:11:27;7.40;;;4.67;;
11655;SDS011;5884;43.618;1.438;2023-06-22T09:13:54;9.50;;;4.50;;
11655;SDS011;5884;43.618;1.438;2023-06-22T09:16:24;10.67;;;4.80;;
11655;SDS011;5884;43.618;1.438;2023-06-22T09:18:52;6.87;;;4.60;;
11655;SDS011;5884;43.618;1.438;2023-06-22T09:21:19;6.57;;;5.00;;
11655;SDS011;5884;43.618;1.438;2023-06-22T09:23:48;7.37;;;4.93;;
11655;SDS011;5884;43.618;1.438;2023-06-22T09:26:16;5.07;;;4.57;;
11655;SDS011;5884;43.618;1.438;2023-06-22T09:28:43;11.37;;;5.13;;
11655;SDS011;5884;43.618;1.438;2023-06-22T09:31:11;7.07;;;5.00;;
11655;SDS011;5884;43.618;1.438;2023-06-22T09:33:39;7.87;;;5.27;;
11655;SDS011;5884;43.618;1.438;2023-06-22T09:36:07;8.57;;;5.03;;
11655;SDS011;5884;43.618;1.438;2023-06-22T09:38:34;6.13;;;4.53;;
11655;SDS011;5884;43.618;1.438;2023-06-22T09:41:03;9.27;;;5.47;;
11655;SDS011;5884;43.618;1.438;2023-06-22T09:43:31;6.87;;;5.13;;
11655;SDS011;5884;43.618;1.438;2023-06-22T09:46:00;6.20;;;4.97;;
11655;SDS011;5884;43.618;1.438;2023-06-22T09:48:27;6.93;;;5.13;;
11655;SDS011;5884;43.618;1.438;2023-06-22T09:50:55;9.50;;;5.13;;
11655;SDS011;5884;43.618;1.438;2023-06-22T09:53:22;6.67;;;5.40;;
11655;SDS011;5884;43.618;1.438;2023-06-22T09:55:50;8.53;;;5.53;;
11655;SDS011;5884;43.618;1.438;2023-06-22T09:58:18;8.17;;;5.30;;
11655;SDS011;5884;43.618;1.438;2023-06-22T10:00:46;6.63;;;5.20;;
11655;SDS011;5884;43.618;1.438;2023-06-22T10:03:13;5.67;;;5.00;;
11655;SDS011;5884;43.618;1.438;2023-06-22T10:05:40;7.13;;;4.93;;
11655;SDS011;5884;43.618;1.438;2023-06-22T10:08:08;7.50;;;4.77;;
11655;SDS011;5884;43.618;1.438;2023-06-22T10:10:35;7.00;;;5.03;;
11655;SDS011;5884;43.618;1.438;2023-06-22T10:13:03;6.50;;;4.93;;
11655;SDS011;5884;43.618;1.438;2023-06-22T10:15:37;6.73;;;4.67;;
11655;SDS011;5884;43.618;1.438;2023-06-22T10:18:04;5.80;;;4.73;;
11655;SDS011;5884;43.618;1.438;2023-06-22T10:20:31;6.17;;;4.80;;
11655;SDS011;5884;43.618;1.438;2023-06-22T10:22:59;6.20;;;4.80;;
11655;SDS011;5884;43.618;1.438;2023-06-22T10:25:26;6.23;;;4.30;;
11655;SDS011;5884;43.618;1.438;2023-06-22T10:27:53;5.57;;;4.23;;
11655;SDS011;5884;43.618;1.438;2023-06-22T10:30:21;6.67;;;4.53;;
11655;SDS011;5884;43.618;1.438;2023-06-22T10:32:49;4.77;;;4.27;;
11655;SDS011;5884;43.618;1.438;2023-06-22T10:35:17;5.13;;;4.63;;
11655;SDS011;5884;43.618;1.438;2023-06-22T10:37:44;5.23;;;4.63;;
11655;SDS011;5884;43.618;1.438;2023-06-22T10:40:13;5.60;;;4.50;;
11655;SDS011;5884;43.618;1.438;2023-06-22T10:42:42;5.30;;;4.80;;
11655;SDS011;5884;43.618;1.438;2023-06-22T10:45:09;6.23;;;4.33;;
11655;SDS011;5884;43.618;1.438;2023-06-22T10:47:37;6.37;;;4.30;;
11655;SDS011;5884;43.618;1.438;2023-06-22T10:50:08;5.07;;;4.53;;
11655;SDS011;5884;43.618;1.438;2023-06-22T10:52:36;5.80;;;4.00;;
11655;SDS011;5884;43.618;1.438;2023-06-22T10:55:04;8.33;;;4.37;;
11655;SDS011;5884;43.618;1.438;2023-06-22T10:57:32;5.23;;;4.10;;
11655;SDS011;5884;43.618;1.438;2023-06-22T10:59:59;5.53;;;4.37;;
11655;SDS011;5884;43.618;1.438;2023-06-22T11:02:26;5.47;;;4.37;;
11655;SDS011;5884;43.618;1.438;2023-06-22T11:04:54;4.67;;;3.87;;
11655;SDS011;5884;43.618;1.438;2023-06-22T11:07:22;5.03;;;4.17;;
11655;SDS011;5884;43.618;1.438;2023-06-22T11:09:50;6.77;;;3.50;;
11655;SDS011;5884;43.618;1.438;2023-06-22T11:12:17;6.83;;;4.20;;
11655;SDS011;5884;43.618;1.438;2023-06-22T11:14:44;5.30;;;3.83;;
11655;SDS011;5884;43.618;1.438;2023-06-22T11:17:11;6.07;;;4.33;;
11655;SDS011;5884;43.618;1.438;2023-06-22T11:19:38;4.77;;;4.30;;
11655;SDS011;5884;43.618;1.438;2023-06-22T11:22:06;5.30;;;3.97;;
11655;SDS011;5884;43.618;1.438;2023-06-22T11:24:34;4.43;;;3.87;;
11655;SDS011;5884;43.618;1.438;2023-06-22T11:27:01;5.30;;;3.70;;
11655;SDS011;5884;43.618;1.438;2023-06-22T11:29:29;4.63;;;3.60;;
11655;SDS011;5884;43.618;1.438;2023-06-22T11:31:56;6.00;;;4.10;;
11655;SDS011;5884;43.618;1.438;2023-06-22T11:34:23;5.53;;;3.80;;
11655;SDS011;5884;43.618;1.438;2023-06-22T11:36:51;4.37;;;3.63;;
11655;SDS011;5884;43.618;1.438;2023-06-22T11:39:18;4.47;;;3.40;;
11655;SDS011;5884;43.618;1.438;2023-06-22T11:41:46;3.90;;;3.47;;
11655;SDS011;5884;43.618;1.438;2023-06-22T11:44:14;6.47;;;3.70;;
11655;SDS011;5884;43.618;1.438;2023-06-22T11:46:41;4.27;;;3.80;;
11655;SDS011;5884;43.618;1.438;2023-06-22T11:49:08;4.10;;;3.70;;
11655;SDS011;5884;43.618;1.438;2023-06-22T11:51:35;4.33;;;3.40;;
11655;SDS011;5884;43.618;1.438;2023-06-22T11:54:03;5.30;;;3.73;;
11655;SDS011;5884;43.618;1.438;2023-06-22T11:56:30;5.03;;;3.67;;
11655;SDS011;5884;43.618;1.438;2023-06-22T11:58:58;4.27;;;3.87;;
11655;SDS011;5884;43.618;1.438;2023-06-22T12:01:26;6.00;;;3.73;;
11655;SDS011;5884;43.618;1.438;2023-06-22T12:03:53;5.90;;;3.60;;
11655;SDS011;5884;43.618;1.438;2023-06-22T12:06:20;3.63;;;3.23;;
11655;SDS011;5884;43.618;1.438;2023-06-22T12:08:48;5.00;;;3.40;;
11655;SDS011;5884;43.618;1.438;2023-06-22T12:11:15;5.63;;;3.80;;
11655;SDS011;5884;43.618;1.438;2023-06-22T12:13:42;4.17;;;3.77;;
11655;SDS011;5884;43.618;1.438;2023-06-22T12:16:11;8.53;;;3.90;;
11655;SDS011;5884;43.618;1.438;2023-06-22T12:18:38;4.23;;;3.50;;
11655;SDS011;5884;43.618;1.438;2023-06-22T12:21:05;5.20;;;3.63;;
11655;SDS011;5884;43.618;1.438;2023-06-22T12:23:33;4.20;;;3.20;;
11655;SDS011;5884;43.618;1.438;2023-06-22T12:26:00;3.70;;;3.40;;
11655;SDS011;5884;43.618;1.438;2023-06-22T12:28:27;4.23;;;3.63;;
11655;SDS011;5884;43.618;1.438;2023-06-22T12:30:54;6.37;;;3.40;;
11655;SDS011;5884;43.618;1.438;2023-06-22T12:33:23;3.77;;;3.27;;
11655;SDS011;5884;43.618;1.438;2023-06-22T12:35:50;3.70;;;3.07;;
11655;SDS011;5884;43.618;1.438;2023-06-22T12:38:17;4.50;;;3.20;;
11655;SDS011;5884;43.618;1.438;2023-06-22T12:40:44;4.10;;;3.00;;
11655;SDS011;5884;43.618;1.438;2023-06-22T12:43:14;5.57;;;3.20;;
11655;SDS011;5884;43.618;1.438;2023-06-22T12:45:41;5.07;;;3.10;;
11655;SDS011;5884;43.618;1.438;2023-06-22T12:48:09;6.30;;;3.07;;
11655;SDS011;5884;43.618;1.438;2023-06-22T12:50:39;5.23;;;3.10;;
11655;SDS011;5884;43.618;1.438;2023-06-22T12:53:06;4.53;;;3.00;;
11655;SDS011;5884;43.618;1.438;2023-06-22T12:55:33;3.07;;;2.77;;
11655;SDS011;5884;43.618;1.438;2023-06-22T12:58:01;6.90;;;3.43;;
11655;SDS011;5884;43.618;1.438;2023-06-22T13:00:28;4.77;;;3.23;;
11655;SDS011;5884;43.618;1.438;2023-06-22T13:02:55;3.67;;;2.77;;
11655;SDS011;5884;43.618;1.438;2023-06-22T13:05:22;6.20;;;3.00;;
11655;SDS011;5884;43.618;1.438;2023-06-22T13:07:51;5.03;;;3.17;;
11655;SDS011;5884;43.618;1.438;2023-06-22T13:10:18;5.03;;;3.00;;
11655;SDS011;5884;43.618;1.438;2023-06-22T13:12:45;4.93;;;3.73;;
11655;SDS011;5884;43.618;1.438;2023-06-22T13:15:12;3.87;;;3.23;;
11655;SDS011;5884;43.618;1.438;2023-06-22T13:17:39;3.43;;;2.90;;
11655;SDS011;5884;43.618;1.438;2023-06-22T13:20:07;3.43;;;2.80;;
11655;SDS011;5884;43.618;1.438;2023-06-22T13:22:35;5.20;;;3.00;;
11655;SDS011;5884;43.618;1.438;2023-06-22T13:25:09;6.40;;;3.20;;
11655;SDS011;5884;43.618;1.438;2023-06-22T13:27:38;4.77;;;2.90;;
11655;SDS011;5884;43.618;1.438;2023-06-22T13:30:05;3.87;;;3.10;;
11655;SDS011;5884;43.618;1.438;2023-06-22T13:32:34;5.30;;;3.20;;
11655;SDS011;5884;43.618;1.438;2023-06-22T13:35:01;4.67;;;3.00;;
11655;SDS011;5884;43.618;1.438;2023-06-22T13:37:29;4.97;;;3.23;;
11655;SDS011;5884;43.618;1.438;2023-06-22T13:39:56;5.87;;;3.27;;
11655;SDS011;5884;43.618;1.438;2023-06-22T13:42:26;4.60;;;3.20;;
11655;SDS011;5884;43.618;1.438;2023-06-22T13:44:53;5.27;;;3.10;;
11655;SDS011;5884;43.618;1.438;2023-06-22T13:47:20;3.53;;;3.10;;
11655;SDS011;5884;43.618;1.438;2023-06-22T13:49:47;4.73;;;3.10;;
11655;SDS011;5884;43.618;1.438;2023-06-22T13:52:14;3.30;;;3.00;;
11655;SDS011;5884;43.618;1.438;2023-06-22T13:54:42;7.13;;;3.63;;
11655;SDS011;5884;43.618;1.438;2023-06-22T13:57:09;5.77;;;2.90;;
11655;SDS011;5884;43.618;1.438;2023-06-22T13:59:37;4.70;;;3.40;;
11655;SDS011;5884;43.618;1.438;2023-06-22T14:02:07;6.00;;;3.30;;
11655;SDS011;5884;43.618;1.438;2023-06-22T14:04:34;4.10;;;3.70;;
11655;SDS011;5884;43.618;1.438;2023-06-22T14:07:02;5.73;;;3.70;;
11655;SDS011;5884;43.618;1.438;2023-06-22T14:09:29;3.53;;;3.23;;
11655;SDS011;5884;43.618;1.438;2023-06-22T14:11:57;3.60;;;2.97;;
11655;SDS011;5884;43.618;1.438;2023-06-22T14:14:24;4.97;;;3.37;;
11655;SDS011;5884;43.618;1.438;2023-06-22T14:16:53;6.83;;;3.50;;
11655;SDS011;5884;43.618;1.438;2023-06-22T14:19:20;5.60;;;3.83;;
11655;SDS011;5884;43.618;1.438;2023-06-22T14:21:47;4.57;;;3.57;;
11655;SDS011;5884;43.618;1.438;2023-06-22T14:24:14;6.57;;;3.87;;
11655;SDS011;5884;43.618;1.438;2023-06-22T14:26:42;5.38;;;3.40;;
11655;SDS011;5884;43.618;1.438;2023-06-22T14:29:09;4.57;;;3.70;;
11655;SDS011;5884;43.618;1.438;2023-06-22T14:31:36;5.20;;;3.60;;
11655;SDS011;5884;43.618;1.438;2023-06-22T14:34:05;6.50;;;3.67;;
11655;SDS011;5884;43.618;1.438;2023-06-22T14:36:32;4.77;;;3.50;;
11655;SDS011;5884;43.618;1.438;2023-06-22T14:38:59;4.50;;;3.37;;
11655;SDS011;5884;43.618;1.438;2023-06-22T14:41:26;4.47;;;3.37;;
11655;SDS011;5884;43.618;1.438;2023-06-22T14:43:53;4.17;;;3.00;;
11655;SDS011;5884;43.618;1.438;2023-06-22T14:46:20;4.33;;;3.50;;
11655;SDS011;5884;43.618;1.438;2023-06-22T14:48:48;5.43;;;3.40;;
11655;SDS011;5884;43.618;1.438;2023-06-22T14:51:16;4.53;;;3.20;;
11655;SDS011;5884;43.618;1.438;2023-06-22T14:53:44;7.70;;;3.53;;
11655;SDS011;5884;43.618;1.438;2023-06-22T14:56:12;4.00;;;3.50;;
11655;SDS011;5884;43.618;1.438;2023-06-22T14:58:40;3.77;;;3.37;;
11655;SDS011;5884;43.618;1.438;2023-06-22T15:01:10;4.80;;;3.50;;
11655;SDS011;5884;43.618;1.438;2023-06-22T15:03:38;3.83;;;3.30;;
11655;SDS011;5884;43.618;1.438;2023-06-22T15:06:05;5.07;;;3.83;;
11655;SDS011;5884;43.618;1.438;2023-06-22T15:08:34;4.23;;;3.73;;
11655;SDS011;5884;43.618;1.438;2023-06-22T15:11:03;4.77;;;3.27;;
11655;SDS011;5884;43.618;1.438;2023-06-22T15:13:30;3.97;;;3.17;;
11655;SDS011;5884;43.618;1.438;2023-06-22T15:15:59;4.47;;;3.40;;
11655;SDS011;5884;43.618;1.438;2023-06-22T15:18:26;5.13;;;3.47;;
11655;SDS011;5884;43.618;1.438;2023-06-22T15:20:53;4.03;;;3.43;;
11655;SDS011;5884;43.618;1.438;2023-06-22T15:23:21;7.17;;;4.00;;
11655;SDS011;5884;43.618;1.438;2023-06-22T15:25:49;4.53;;;3.47;;
11655;SDS011;5884;43.618;1.438;2023-06-22T15:28:17;4.93;;;3.80;;
11655;SDS011;5884;43.618;1.438;2023-06-22T15:30:46;5.20;;;3.87;;
11655;SDS011;5884;43.618;1.438;2023-06-22T15:33:13;4.00;;;3.57;;
11655;SDS011;5884;43.618;1.438;2023-06-22T15:35:40;5.73;;;4.10;;
11655;SDS011;5884;43.618;1.438;2023-06-22T15:38:08;5.93;;;4.27;;
11655;SDS011;5884;43.618;1.438;2023-06-22T15:40:35;5.17;;;4.07;;
11655;SDS011;5884;43.618;1.438;2023-06-22T15:43:04;5.70;;;4.20;;
11655;SDS011;5884;43.618;1.438;2023-06-22T15:45:31;6.23;;;4.20;;
11655;SDS011;5884;43.618;1.438;2023-06-22T15:47:58;5.60;;;4.40;;
11655;SDS011;5884;43.618;1.438;2023-06-22T15:50:26;5.43;;;4.23;;
11655;SDS011;5884;43.618;1.438;2023-06-22T15:52:53;5.43;;;4.03;;
11655;SDS011;5884;43.618;1.438;2023-06-22T15:55:20;6.00;;;4.37;;
11655;SDS011;5884;43.618;1.438;2023-06-22T15:57:48;6.33;;;4.60;;
11655;SDS011;5884;43.618;1.438;2023-06-22T16:00:17;5.60;;;4.43;;
11655;SDS011;5884;43.618;1.438;2023-06-22T16:02:45;5.40;;;4.37;;
11655;SDS011;5884;43.618;1.438;2023-06-22T16:05:13;6.23;;;4.73;;
11655;SDS011;5884;43.618;1.438;2023-06-22T16:07:41;6.30;;;4.40;;
11655;SDS011;5884;43.618;1.438;2023-06-22T16:10:08;6.13;;;4.57;;
11655;SDS011;5884;43.618;1.438;2023-06-22T16:12:36;7.93;;;4.97;;
11655;SDS011;5884;43.618;1.438;2023-06-22T16:15:04;7.90;;;4.90;;
11655;SDS011;5884;43.618;1.438;2023-06-22T16:17:33;7.13;;;4.93;;
11655;SDS011;5884;43.618;1.438;2023-06-22T16:20:03;5.33;;;4.50;;
11655;SDS011;5884;43.618;1.438;2023-06-22T16:22:31;6.43;;;4.50;;
11655;SDS011;5884;43.618;1.438;2023-06-22T16:24:58;5.90;;;4.43;;
11655;SDS011;5884;43.618;1.438;2023-06-22T16:27:28;5.20;;;4.20;;
11655;SDS011;5884;43.618;1.438;2023-06-22T16:29:57;6.37;;;4.30;;
11655;SDS011;5884;43.618;1.438;2023-06-22T16:32:24;5.83;;;4.70;;
11655;SDS011;5884;43.618;1.438;2023-06-22T16:34:52;8.87;;;4.63;;
11655;SDS011;5884;43.618;1.438;2023-06-22T16:37:20;5.63;;;3.97;;
11655;SDS011;5884;43.618;1.438;2023-06-22T16:39:47;6.30;;;3.10;;
11655;SDS011;5884;43.618;1.438;2023-06-22T16:42:14;3.93;;;3.00;;
11655;SDS011;5884;43.618;1.438;2023-06-22T16:44:42;3.40;;;2.63;;
11655;SDS011;5884;43.618;1.438;2023-06-22T16:47:09;3.33;;;2.60;;
11655;SDS011;5884;43.618;1.438;2023-06-22T16:49:36;3.53;;;2.43;;
11655;SDS011;5884;43.618;1.438;2023-06-22T16:52:05;3.80;;;2.50;;
11655;SDS011;5884;43.618;1.438;2023-06-22T16:54:33;3.00;;;2.70;;
11655;SDS011;5884;43.618;1.438;2023-06-22T16:57:00;4.00;;;2.60;;
11655;SDS011;5884;43.618;1.438;2023-06-22T16:59:29;3.40;;;2.60;;
11655;SDS011;5884;43.618;1.438;2023-06-22T17:01:57;3.87;;;2.60;;
11655;SDS011;5884;43.618;1.438;2023-06-22T17:04:25;4.83;;;3.13;;
11655;SDS011;5884;43.618;1.438;2023-06-22T17:06:54;3.93;;;3.30;;
11655;SDS011;5884;43.618;1.438;2023-06-22T17:09:26;4.43;;;3.87;;
11655;SDS011;5884;43.618;1.438;2023-06-22T17:11:54;4.97;;;3.90;;
11655;SDS011;5884;43.618;1.438;2023-06-22T17:14:21;5.07;;;3.90;;
11655;SDS011;5884;43.618;1.438;2023-06-22T17:16:49;5.93;;;3.63;;
11655;SDS011;5884;43.618;1.438;2023-06-22T17:19:17;4.67;;;3.53;;
11655;SDS011;5884;43.618;1.438;2023-06-22T17:21:46;5.37;;;3.70;;
11655;SDS011;5884;43.618;1.438;2023-06-22T17:24:15;5.10;;;3.73;;
11655;SDS011;5884;43.618;1.438;2023-06-22T17:26:48;6.10;;;3.50;;
11655;SDS011;5884;43.618;1.438;2023-06-22T17:29:19;4.07;;;3.73;;
11655;SDS011;5884;43.618;1.438;2023-06-22T17:31:46;4.00;;;3.57;;
11655;SDS011;5884;43.618;1.438;2023-06-22T17:34:14;9.83;;;4.20;;
11655;SDS011;5884;43.618;1.438;2023-06-22T17:36:44;5.10;;;3.63;;
11655;SDS011;5884;43.618;1.438;2023-06-22T17:39:14;4.77;;;3.67;;
11655;SDS011;5884;43.618;1.438;2023-06-22T17:41:44;5.30;;;3.83;;
11655;SDS011;5884;43.618;1.438;2023-06-22T17:44:14;5.90;;;3.60;;
11655;SDS011;5884;43.618;1.438;2023-06-22T17:46:45;5.83;;;3.60;;
11655;SDS011;5884;43.618;1.438;2023-06-22T17:49:12;5.47;;;3.60;;
11655;SDS011;5884;43.618;1.438;2023-06-22T17:51:42;6.27;;;3.87;;
11655;SDS011;5884;43.618;1.438;2023-06-22T17:54:10;5.27;;;4.00;;
11655;SDS011;5884;43.618;1.438;2023-06-22T17:56:38;7.17;;;3.93;;
11655;SDS011;5884;43.618;1.438;2023-06-22T17:59:05;5.27;;;4.40;;
11655;SDS011;5884;43.618;1.438;2023-06-22T18:01:34;4.37;;;3.90;;
11655;SDS011;5884;43.618;1.438;2023-06-22T18:04:06;4.70;;;4.27;;
11655;SDS011;5884;43.618;1.438;2023-06-22T18:06:36;4.60;;;3.93;;
11655;SDS011;5884;43.618;1.438;2023-06-22T18:09:05;6.77;;;4.30;;
11655;SDS011;5884;43.618;1.438;2023-06-22T18:11:34;6.47;;;4.53;;
11655;SDS011;5884;43.618;1.438;2023-06-22T18:14:13;6.00;;;4.27;;
11655;SDS011;5884;43.618;1.438;2023-06-22T18:16:43;5.07;;;4.50;;
11655;SDS011;5884;43.618;1.438;2023-06-22T18:19:12;6.27;;;5.00;;
11655;SDS011;5884;43.618;1.438;2023-06-22T18:21:40;5.90;;;5.00;;
11655;SDS011;5884;43.618;1.438;2023-06-22T18:24:08;5.87;;;5.23;;
11655;SDS011;5884;43.618;1.438;2023-06-22T18:26:36;6.43;;;4.90;;
11655;SDS011;5884;43.618;1.438;2023-06-22T18:29:04;6.83;;;5.83;;
11655;SDS011;5884;43.618;1.438;2023-06-22T18:31:32;12.00;;;6.63;;
11655;SDS011;5884;43.618;1.438;2023-06-22T18:34:02;6.80;;;5.87;;
11655;SDS011;5884;43.618;1.438;2023-06-22T18:36:32;11.37;;;5.87;;
11655;SDS011;5884;43.618;1.438;2023-06-22T18:39:04;7.83;;;6.07;;
11655;SDS011;5884;43.618;1.438;2023-06-22T18:41:34;7.53;;;5.87;;
11655;SDS011;5884;43.618;1.438;2023-06-22T18:44:03;7.50;;;5.60;;
11655;SDS011;5884;43.618;1.438;2023-06-22T18:46:31;9.63;;;6.27;;
11655;SDS011;5884;43.618;1.438;2023-06-22T18:49:03;7.43;;;6.63;;
11655;SDS011;5884;43.618;1.438;2023-06-22T18:51:51;9.10;;;6.67;;
11655;SDS011;5884;43.618;1.438;2023-06-22T18:54:23;9.17;;;6.70;;
11655;SDS011;5884;43.618;1.438;2023-06-22T18:57:00;9.23;;;7.00;;
11655;SDS011;5884;43.618;1.438;2023-06-22T18:59:45;9.17;;;6.20;;
11655;SDS011;5884;43.618;1.438;2023-06-22T19:02:33;10.20;;;5.87;;
11655;SDS011;5884;43.618;1.438;2023-06-22T19:05:08;7.53;;;5.93;;
11655;SDS011;5884;43.618;1.438;2023-06-22T19:07:57;8.20;;;5.57;;
11655;SDS011;5884;43.618;1.438;2023-06-22T19:10:28;10.07;;;5.90;;
11655;SDS011;5884;43.618;1.438;2023-06-22T19:15:51;8.07;;;6.17;;
11655;SDS011;5884;43.618;1.438;2023-06-22T19:18:20;8.67;;;6.47;;
11655;SDS011;5884;43.618;1.438;2023-06-22T19:20:50;13.10;;;6.87;;
11655;SDS011;5884;43.618;1.438;2023-06-22T19:23:22;10.57;;;6.93;;
11655;SDS011;5884;43.618;1.438;2023-06-22T19:25:51;10.67;;;6.93;;
11655;SDS011;5884;43.618;1.438;2023-06-22T19:28:22;9.63;;;6.70;;
11655;SDS011;5884;43.618;1.438;2023-06-22T19:30:51;10.77;;;6.27;;
11655;SDS011;5884;43.618;1.438;2023-06-22T19:33:20;7.50;;;6.40;;
11655;SDS011;5884;43.618;1.438;2023-06-22T19:35:49;8.30;;;6.33;;
11655;SDS011;5884;43.618;1.438;2023-06-22T19:38:17;10.83;;;7.83;;
11655;SDS011;5884;43.618;1.438;2023-06-22T19:40:45;11.30;;;6.90;;
11655;SDS011;5884;43.618;1.438;2023-06-22T19:43:12;8.97;;;7.27;;
11655;SDS011;5884;43.618;1.438;2023-06-22T19:45:41;7.93;;;7.13;;
11655;SDS011;5884;43.618;1.438;2023-06-22T19:48:11;9.97;;;8.40;;
11655;SDS011;5884;43.618;1.438;2023-06-22T19:50:39;9.87;;;8.23;;
11655;SDS011;5884;43.618;1.438;2023-06-22T19:53:10;11.20;;;7.83;;